sensor_id;sensor_type;location;lat;lon;timestamp;P1;durP1;ratioP1;P2;durP2;ratioP2
35126;SDS011;21300;52.006;5.798;2023-02-15T00:01:08;26.85;;;16.65;;
35126;SDS011;21300;52.006;5.798;2023-02-15T00:03:35;28.45;;;16.35;;
35126;SDS011;21300;52.006;5.798;2023-02-15T00:06:00;25.00;;;15.80;;
35126;SDS011;21300;52.006;5.798;2023-02-15T00:08:26;25.85;;;15.70;;
35126;SDS011;21300;52.006;5.798;2023-02-15T00:10:52;28.23;;;16.67;;
35126;SDS011;21300;52.006;5.798;2023-02-15T00:13:18;27.20;;;16.52;;
35126;SDS011;21300;52.006;5.798;2023-02-15T00:15:43;26.80;;;15.43;;
35126;SDS011;21300;52.006;5.798;2023-02-15T00:18:09;26.63;;;16.08;;
35126;SDS011;21300;52.006;5.798;2023-02-15T00:20:34;30.42;;;17.17;;
35126;SDS011;21300;52.006;5.798;2023-02-15T00:23:00;28.85;;;16.35;;
35126;SDS011;21300;52.006;5.798;2023-02-15T00:25:26;25.85;;;16.33;;
35126;SDS011;21300;52.006;5.798;2023-02-15T00:28:10;25.80;;;15.95;;
35126;SDS011;21300;52.006;5.798;2023-02-15T00:30:35;29.40;;;16.88;;
35126;SDS011;21300;52.006;5.798;2023-02-15T00:33:01;29.60;;;16.60;;
35126;SDS011;21300;52.006;5.798;2023-02-15T00:35:26;26.15;;;15.30;;
35126;SDS011;21300;52.006;5.798;2023-02-15T00:37:52;28.73;;;15.38;;
35126;SDS011;21300;52.006;5.798;2023-02-15T00:40:18;25.77;;;15.88;;
35126;SDS011;21300;52.006;5.798;2023-02-15T00:42:43;28.48;;;16.50;;
35126;SDS011;21300;52.006;5.798;2023-02-15T00:45:09;26.45;;;15.25;;
35126;SDS011;21300;52.006;5.798;2023-02-15T00:47:34;23.52;;;14.57;;
35126;SDS011;21300;52.006;5.798;2023-02-15T00:50:18;24.92;;;15.07;;
35126;SDS011;21300;52.006;5.798;2023-02-15T00:52:44;24.25;;;14.45;;
35126;SDS011;21300;52.006;5.798;2023-02-15T00:55:09;27.58;;;15.35;;
35126;SDS011;21300;52.006;5.798;2023-02-15T00:57:35;25.70;;;15.43;;
35126;SDS011;21300;52.006;5.798;2023-02-15T01:00:01;26.98;;;16.08;;
35126;SDS011;21300;52.006;5.798;2023-02-15T01:02:26;28.25;;;17.02;;
35126;SDS011;21300;52.006;5.798;2023-02-15T01:04:53;29.98;;;17.00;;
35126;SDS011;21300;52.006;5.798;2023-02-15T01:07:18;27.30;;;16.95;;
35126;SDS011;21300;52.006;5.798;2023-02-15T01:09:44;28.67;;;16.42;;
35126;SDS011;21300;52.006;5.798;2023-02-15T01:12:09;27.67;;;17.02;;
35126;SDS011;21300;52.006;5.798;2023-02-15T01:14:35;25.60;;;16.80;;
35126;SDS011;21300;52.006;5.798;2023-02-15T01:17:00;26.35;;;15.95;;
35126;SDS011;21300;52.006;5.798;2023-02-15T01:19:26;29.20;;;16.10;;
35126;SDS011;21300;52.006;5.798;2023-02-15T01:21:51;26.45;;;16.90;;
35126;SDS011;21300;52.006;5.798;2023-02-15T01:24:17;29.45;;;16.45;;
35126;SDS011;21300;52.006;5.798;2023-02-15T01:26:42;29.90;;;17.67;;
35126;SDS011;21300;52.006;5.798;2023-02-15T01:29:08;26.88;;;16.70;;
35126;SDS011;21300;52.006;5.798;2023-02-15T01:31:34;29.40;;;16.35;;
35126;SDS011;21300;52.006;5.798;2023-02-15T01:33:59;28.70;;;16.42;;
35126;SDS011;21300;52.006;5.798;2023-02-15T01:36:25;27.27;;;16.08;;
35126;SDS011;21300;52.006;5.798;2023-02-15T01:38:50;28.17;;;15.73;;
35126;SDS011;21300;52.006;5.798;2023-02-15T01:41:16;27.63;;;16.02;;
35126;SDS011;21300;52.006;5.798;2023-02-15T01:43:58;30.20;;;16.83;;
35126;SDS011;21300;52.006;5.798;2023-02-15T01:46:33;30.30;;;18.05;;
35126;SDS011;21300;52.006;5.798;2023-02-15T01:49:05;26.27;;;16.55;;
35126;SDS011;21300;52.006;5.798;2023-02-15T01:51:43;30.45;;;16.77;;
35126;SDS011;21300;52.006;5.798;2023-02-15T01:54:21;28.27;;;16.67;;
35126;SDS011;21300;52.006;5.798;2023-02-15T01:56:58;29.33;;;15.98;;
35126;SDS011;21300;52.006;5.798;2023-02-15T01:59:28;29.23;;;16.60;;
35126;SDS011;21300;52.006;5.798;2023-02-15T02:01:56;28.80;;;16.92;;
35126;SDS011;21300;52.006;5.798;2023-02-15T02:04:26;26.45;;;15.18;;
35126;SDS011;21300;52.006;5.798;2023-02-15T02:06:58;29.73;;;17.90;;
35126;SDS011;21300;52.006;5.798;2023-02-15T02:09:24;28.20;;;16.92;;
35126;SDS011;21300;52.006;5.798;2023-02-15T02:11:51;27.60;;;15.93;;
35126;SDS011;21300;52.006;5.798;2023-02-15T02:14:19;25.75;;;15.95;;
35126;SDS011;21300;52.006;5.798;2023-02-15T02:16:48;29.45;;;17.15;;
35126;SDS011;21300;52.006;5.798;2023-02-15T02:22:14;28.42;;;15.70;;
35126;SDS011;21300;52.006;5.798;2023-02-15T02:25:06;30.48;;;15.80;;
35126;SDS011;21300;52.006;5.798;2023-02-15T02:33:28;29.98;;;16.83;;
35126;SDS011;21300;52.006;5.798;2023-02-15T02:36:14;26.05;;;15.52;;
35126;SDS011;21300;52.006;5.798;2023-02-15T02:44:34;28.83;;;16.83;;
35126;SDS011;21300;52.006;5.798;2023-02-15T02:49:39;25.42;;;15.35;;
35126;SDS011;21300;52.006;5.798;2023-02-15T02:52:31;25.20;;;16.05;;
35126;SDS011;21300;52.006;5.798;2023-02-15T02:58:23;29.25;;;17.13;;
35126;SDS011;21300;52.006;5.798;2023-02-15T03:03:32;28.10;;;15.70;;
35126;SDS011;21300;52.006;5.798;2023-02-15T03:06:00;28.85;;;16.50;;
35126;SDS011;21300;52.006;5.798;2023-02-15T03:08:36;28.85;;;16.42;;
35126;SDS011;21300;52.006;5.798;2023-02-15T03:11:06;30.45;;;15.82;;
35126;SDS011;21300;52.006;5.798;2023-02-15T03:13:33;29.65;;;17.00;;
35126;SDS011;21300;52.006;5.798;2023-02-15T03:16:18;27.85;;;16.35;;
35126;SDS011;21300;52.006;5.798;2023-02-15T03:18:53;27.60;;;15.40;;
35126;SDS011;21300;52.006;5.798;2023-02-15T03:21:37;30.60;;;16.98;;
35126;SDS011;21300;52.006;5.798;2023-02-15T03:24:16;30.73;;;16.25;;
35126;SDS011;21300;52.006;5.798;2023-02-15T03:26:48;30.38;;;16.90;;
35126;SDS011;21300;52.006;5.798;2023-02-15T03:29:17;30.80;;;17.02;;
35126;SDS011;21300;52.006;5.798;2023-02-15T03:31:45;30.10;;;16.77;;
35126;SDS011;21300;52.006;5.798;2023-02-15T03:34:15;31.08;;;17.58;;
35126;SDS011;21300;52.006;5.798;2023-02-15T03:36:47;30.50;;;18.10;;
35126;SDS011;21300;52.006;5.798;2023-02-15T03:39:28;31.73;;;17.42;;
35126;SDS011;21300;52.006;5.798;2023-02-15T03:42:01;29.13;;;16.67;;
35126;SDS011;21300;52.006;5.798;2023-02-15T03:45:13;28.52;;;17.58;;
35126;SDS011;21300;52.006;5.798;2023-02-15T03:50:03;32.28;;;16.83;;
35126;SDS011;21300;52.006;5.798;2023-02-15T03:52:51;30.05;;;17.23;;
35126;SDS011;21300;52.006;5.798;2023-02-15T03:55:17;29.40;;;17.17;;
35126;SDS011;21300;52.006;5.798;2023-02-15T03:57:43;29.00;;;17.02;;
35126;SDS011;21300;52.006;5.798;2023-02-15T04:00:27;22.42;;;12.90;;
35126;SDS011;21300;52.006;5.798;2023-02-15T04:05:42;31.17;;;16.45;;
35126;SDS011;21300;52.006;5.798;2023-02-15T04:08:09;30.75;;;16.88;;
35126;SDS011;21300;52.006;5.798;2023-02-15T04:10:35;30.13;;;16.08;;
35126;SDS011;21300;52.006;5.798;2023-02-15T04:15:55;28.63;;;16.10;;
35126;SDS011;21300;52.006;5.798;2023-02-15T04:18:33;30.23;;;17.25;;
35126;SDS011;21300;52.006;5.798;2023-02-15T04:21:19;30.45;;;17.30;;
35126;SDS011;21300;52.006;5.798;2023-02-15T04:24:04;30.33;;;16.70;;
35126;SDS011;21300;52.006;5.798;2023-02-15T04:26:49;28.50;;;15.33;;
35126;SDS011;21300;52.006;5.798;2023-02-15T04:29:17;28.73;;;16.20;;
35126;SDS011;21300;52.006;5.798;2023-02-15T04:31:47;28.60;;;16.88;;
35126;SDS011;21300;52.006;5.798;2023-02-15T04:34:13;30.52;;;16.88;;
35126;SDS011;21300;52.006;5.798;2023-02-15T04:39:23;32.88;;;16.48;;
35126;SDS011;21300;52.006;5.798;2023-02-15T04:41:49;31.35;;;17.10;;
35126;SDS011;21300;52.006;5.798;2023-02-15T04:44:15;29.85;;;16.02;;
35126;SDS011;21300;52.006;5.798;2023-02-15T04:46:40;31.27;;;16.70;;
35126;SDS011;21300;52.006;5.798;2023-02-15T04:49:07;30.88;;;16.70;;
35126;SDS011;21300;52.006;5.798;2023-02-15T04:51:33;34.17;;;17.30;;
35126;SDS011;21300;52.006;5.798;2023-02-15T04:53:59;30.42;;;16.50;;
35126;SDS011;21300;52.006;5.798;2023-02-15T04:56:24;31.08;;;16.98;;
35126;SDS011;21300;52.006;5.798;2023-02-15T04:58:50;29.85;;;16.75;;
35126;SDS011;21300;52.006;5.798;2023-02-15T05:01:15;28.20;;;16.50;;
35126;SDS011;21300;52.006;5.798;2023-02-15T05:03:41;31.55;;;17.38;;
35126;SDS011;21300;52.006;5.798;2023-02-15T05:06:07;29.15;;;16.60;;
35126;SDS011;21300;52.006;5.798;2023-02-15T05:08:33;35.72;;;17.13;;
35126;SDS011;21300;52.006;5.798;2023-02-15T05:10:58;31.92;;;16.63;;
35126;SDS011;21300;52.006;5.798;2023-02-15T05:13:24;27.00;;;16.20;;
35126;SDS011;21300;52.006;5.798;2023-02-15T05:15:51;31.63;;;17.40;;
35126;SDS011;21300;52.006;5.798;2023-02-15T05:18:17;31.77;;;17.25;;
35126;SDS011;21300;52.006;5.798;2023-02-15T05:20:44;30.85;;;17.13;;
35126;SDS011;21300;52.006;5.798;2023-02-15T05:23:10;31.00;;;17.23;;
35126;SDS011;21300;52.006;5.798;2023-02-15T05:25:36;32.60;;;17.13;;
35126;SDS011;21300;52.006;5.798;2023-02-15T05:28:20;33.30;;;17.10;;
35126;SDS011;21300;52.006;5.798;2023-02-15T05:30:51;34.67;;;17.25;;
35126;SDS011;21300;52.006;5.798;2023-02-15T05:33:49;29.40;;;17.08;;
35126;SDS011;21300;52.006;5.798;2023-02-15T05:36:15;27.17;;;16.50;;
35126;SDS011;21300;52.006;5.798;2023-02-15T05:38:40;30.50;;;16.55;;
35126;SDS011;21300;52.006;5.798;2023-02-15T05:41:06;35.47;;;16.42;;
35126;SDS011;21300;52.006;5.798;2023-02-15T05:43:33;30.95;;;17.27;;
35126;SDS011;21300;52.006;5.798;2023-02-15T05:46:00;33.05;;;18.08;;
35126;SDS011;21300;52.006;5.798;2023-02-15T05:48:27;29.95;;;17.58;;
35126;SDS011;21300;52.006;5.798;2023-02-15T05:50:56;34.50;;;19.42;;
35126;SDS011;21300;52.006;5.798;2023-02-15T05:53:28;33.75;;;18.35;;
35126;SDS011;21300;52.006;5.798;2023-02-15T05:55:55;31.25;;;17.27;;
35126;SDS011;21300;52.006;5.798;2023-02-15T05:58:26;32.53;;;18.48;;
35126;SDS011;21300;52.006;5.798;2023-02-15T06:00:57;32.97;;;17.40;;
35126;SDS011;21300;52.006;5.798;2023-02-15T06:03:23;29.77;;;15.90;;
35126;SDS011;21300;52.006;5.798;2023-02-15T06:05:50;31.95;;;17.58;;
35126;SDS011;21300;52.006;5.798;2023-02-15T06:08:17;30.52;;;17.45;;
35126;SDS011;21300;52.006;5.798;2023-02-15T06:10:43;38.08;;;19.40;;
35126;SDS011;21300;52.006;5.798;2023-02-15T06:13:10;32.53;;;17.88;;
35126;SDS011;21300;52.006;5.798;2023-02-15T06:15:36;34.45;;;18.23;;
35126;SDS011;21300;52.006;5.798;2023-02-15T06:18:02;39.50;;;19.38;;
35126;SDS011;21300;52.006;5.798;2023-02-15T06:20:27;35.28;;;18.35;;
35126;SDS011;21300;52.006;5.798;2023-02-15T06:22:53;32.55;;;17.98;;
35126;SDS011;21300;52.006;5.798;2023-02-15T06:25:18;35.92;;;18.80;;
35126;SDS011;21300;52.006;5.798;2023-02-15T06:27:44;35.20;;;18.35;;
35126;SDS011;21300;52.006;5.798;2023-02-15T06:30:10;33.50;;;18.52;;
35126;SDS011;21300;52.006;5.798;2023-02-15T06:32:36;31.83;;;17.95;;
35126;SDS011;21300;52.006;5.798;2023-02-15T06:35:02;32.58;;;17.95;;
35126;SDS011;21300;52.006;5.798;2023-02-15T06:37:28;32.17;;;18.58;;
35126;SDS011;21300;52.006;5.798;2023-02-15T06:39:54;31.85;;;17.83;;
35126;SDS011;21300;52.006;5.798;2023-02-15T06:42:20;35.20;;;18.00;;
35126;SDS011;21300;52.006;5.798;2023-02-15T06:44:46;32.03;;;17.10;;
35126;SDS011;21300;52.006;5.798;2023-02-15T06:47:12;33.35;;;18.45;;
35126;SDS011;21300;52.006;5.798;2023-02-15T06:49:37;36.38;;;19.48;;
35126;SDS011;21300;52.006;5.798;2023-02-15T06:52:03;32.17;;;18.33;;
35126;SDS011;21300;52.006;5.798;2023-02-15T06:54:29;34.97;;;18.55;;
35126;SDS011;21300;52.006;5.798;2023-02-15T06:56:54;32.97;;;18.55;;
35126;SDS011;21300;52.006;5.798;2023-02-15T06:59:20;37.38;;;19.00;;
35126;SDS011;21300;52.006;5.798;2023-02-15T07:01:46;30.50;;;17.55;;
35126;SDS011;21300;52.006;5.798;2023-02-15T07:04:12;35.58;;;18.13;;
35126;SDS011;21300;52.006;5.798;2023-02-15T07:06:37;34.08;;;19.10;;
35126;SDS011;21300;52.006;5.798;2023-02-15T07:09:03;33.08;;;18.38;;
35126;SDS011;21300;52.006;5.798;2023-02-15T07:11:29;37.35;;;18.27;;
35126;SDS011;21300;52.006;5.798;2023-02-15T07:14:13;35.17;;;19.70;;
35126;SDS011;21300;52.006;5.798;2023-02-15T07:16:38;33.80;;;18.75;;
35126;SDS011;21300;52.006;5.798;2023-02-15T07:19:04;34.45;;;18.17;;
35126;SDS011;21300;52.006;5.798;2023-02-15T07:21:30;32.05;;;17.83;;
35126;SDS011;21300;52.006;5.798;2023-02-15T07:23:56;36.83;;;19.67;;
35126;SDS011;21300;52.006;5.798;2023-02-15T07:26:25;36.70;;;19.23;;
35126;SDS011;21300;52.006;5.798;2023-02-15T07:28:51;41.03;;;20.00;;
35126;SDS011;21300;52.006;5.798;2023-02-15T07:31:16;35.60;;;18.70;;
35126;SDS011;21300;52.006;5.798;2023-02-15T07:33:42;38.20;;;19.58;;
35126;SDS011;21300;52.006;5.798;2023-02-15T07:36:08;39.60;;;21.52;;
35126;SDS011;21300;52.006;5.798;2023-02-15T07:38:37;37.58;;;19.95;;
35126;SDS011;21300;52.006;5.798;2023-02-15T07:41:05;37.88;;;20.63;;
35126;SDS011;21300;52.006;5.798;2023-02-15T07:43:35;43.75;;;21.67;;
35126;SDS011;21300;52.006;5.798;2023-02-15T07:46:04;40.95;;;21.15;;
35126;SDS011;21300;52.006;5.798;2023-02-15T07:48:33;41.83;;;21.08;;
35126;SDS011;21300;52.006;5.798;2023-02-15T07:51:03;41.60;;;20.20;;
35126;SDS011;21300;52.006;5.798;2023-02-15T07:53:31;39.13;;;19.85;;
35126;SDS011;21300;52.006;5.798;2023-02-15T07:56:04;37.22;;;19.10;;
35126;SDS011;21300;52.006;5.798;2023-02-15T07:58:31;42.40;;;21.60;;
35126;SDS011;21300;52.006;5.798;2023-02-15T08:01:15;39.80;;;20.15;;
35126;SDS011;21300;52.006;5.798;2023-02-15T08:03:46;39.78;;;21.00;;
35126;SDS011;21300;52.006;5.798;2023-02-15T08:06:11;40.17;;;22.30;;
35126;SDS011;21300;52.006;5.798;2023-02-15T08:08:38;41.55;;;21.90;;
35126;SDS011;21300;52.006;5.798;2023-02-15T08:11:18;40.97;;;22.70;;
35126;SDS011;21300;52.006;5.798;2023-02-15T08:13:57;45.38;;;22.55;;
35126;SDS011;21300;52.006;5.798;2023-02-15T08:16:33;44.35;;;22.25;;
35126;SDS011;21300;52.006;5.798;2023-02-15T08:19:04;44.08;;;21.88;;
35126;SDS011;21300;52.006;5.798;2023-02-15T08:21:31;44.78;;;23.65;;
35126;SDS011;21300;52.006;5.798;2023-02-15T08:23:58;47.80;;;24.80;;
35126;SDS011;21300;52.006;5.798;2023-02-15T08:26:24;44.55;;;23.63;;
35126;SDS011;21300;52.006;5.798;2023-02-15T08:31:34;49.60;;;24.60;;
35126;SDS011;21300;52.006;5.798;2023-02-15T08:34:02;51.50;;;25.63;;
35126;SDS011;21300;52.006;5.798;2023-02-15T08:36:29;43.85;;;23.25;;
35126;SDS011;21300;52.006;5.798;2023-02-15T08:39:00;51.97;;;26.10;;
35126;SDS011;21300;52.006;5.798;2023-02-15T08:41:29;52.28;;;26.90;;
35126;SDS011;21300;52.006;5.798;2023-02-15T08:43:57;48.42;;;25.67;;
35126;SDS011;21300;52.006;5.798;2023-02-15T08:46:25;54.42;;;27.10;;
35126;SDS011;21300;52.006;5.798;2023-02-15T08:48:52;48.35;;;25.83;;
35126;SDS011;21300;52.006;5.798;2023-02-15T08:51:20;52.08;;;25.95;;
35126;SDS011;21300;52.006;5.798;2023-02-15T08:53:48;56.03;;;27.30;;
35126;SDS011;21300;52.006;5.798;2023-02-15T08:56:15;61.10;;;28.30;;
35126;SDS011;21300;52.006;5.798;2023-02-15T08:58:42;60.67;;;28.92;;
35126;SDS011;21300;52.006;5.798;2023-02-15T09:03:58;54.35;;;28.05;;
35126;SDS011;21300;52.006;5.798;2023-02-15T09:06:27;58.35;;;28.40;;
35126;SDS011;21300;52.006;5.798;2023-02-15T09:08:53;52.33;;;25.55;;
35126;SDS011;21300;52.006;5.798;2023-02-15T09:11:29;61.08;;;30.40;;
35126;SDS011;21300;52.006;5.798;2023-02-15T09:13:56;59.25;;;30.45;;
35126;SDS011;21300;52.006;5.798;2023-02-15T09:16:24;60.42;;;29.65;;
35126;SDS011;21300;52.006;5.798;2023-02-15T09:18:52;61.35;;;30.77;;
35126;SDS011;21300;52.006;5.798;2023-02-15T09:21:19;62.50;;;33.13;;
35126;SDS011;21300;52.006;5.798;2023-02-15T09:23:47;62.67;;;31.23;;
35126;SDS011;21300;52.006;5.798;2023-02-15T09:26:19;54.63;;;26.08;;
35126;SDS011;21300;52.006;5.798;2023-02-15T09:28:46;56.45;;;28.55;;
35126;SDS011;21300;52.006;5.798;2023-02-15T09:31:17;60.90;;;28.70;;
35126;SDS011;21300;52.006;5.798;2023-02-15T09:33:45;59.10;;;30.67;;
35126;SDS011;21300;52.006;5.798;2023-02-15T09:36:16;69.18;;;32.28;;
35126;SDS011;21300;52.006;5.798;2023-02-15T09:39:10;62.75;;;31.60;;
35126;SDS011;21300;52.006;5.798;2023-02-15T09:47:10;56.78;;;27.58;;
35126;SDS011;21300;52.006;5.798;2023-02-15T09:55:02;66.63;;;30.48;;
35126;SDS011;21300;52.006;5.798;2023-02-15T10:05:31;50.17;;;23.95;;
35126;SDS011;21300;52.006;5.798;2023-02-15T10:11:39;58.33;;;29.02;;
35126;SDS011;21300;52.006;5.798;2023-02-15T10:19:59;64.15;;;32.83;;
35126;SDS011;21300;52.006;5.798;2023-02-15T10:28:52;58.75;;;30.27;;
35126;SDS011;21300;52.006;5.798;2023-02-15T10:36:39;59.20;;;26.55;;
35126;SDS011;21300;52.006;5.798;2023-02-15T10:39:20;56.78;;;28.63;;
35126;SDS011;21300;52.006;5.798;2023-02-15T10:44:47;59.08;;;30.45;;
35126;SDS011;21300;52.006;5.798;2023-02-15T10:47:50;53.28;;;25.20;;
35126;SDS011;21300;52.006;5.798;2023-02-15T10:50:46;14.80;;;7.22;;
35126;SDS011;21300;52.006;5.798;2023-02-15T10:53:48;50.92;;;25.85;;
35126;SDS011;21300;52.006;5.798;2023-02-15T10:56:38;54.00;;;27.85;;
35126;SDS011;21300;52.006;5.798;2023-02-15T11:05:16;59.92;;;31.02;;
35126;SDS011;21300;52.006;5.798;2023-02-15T11:07:43;55.20;;;24.17;;
35126;SDS011;21300;52.006;5.798;2023-02-15T11:13:17;63.28;;;29.33;;
35126;SDS011;21300;52.006;5.798;2023-02-15T11:15:46;62.67;;;29.52;;
35126;SDS011;21300;52.006;5.798;2023-02-15T11:21:04;61.70;;;29.42;;
35126;SDS011;21300;52.006;5.798;2023-02-15T11:23:50;56.85;;;31.17;;
35126;SDS011;21300;52.006;5.798;2023-02-15T11:26:19;55.35;;;28.77;;
35126;SDS011;21300;52.006;5.798;2023-02-15T11:28:49;59.03;;;29.45;;
35126;SDS011;21300;52.006;5.798;2023-02-15T11:31:23;57.53;;;28.17;;
35126;SDS011;21300;52.006;5.798;2023-02-15T11:33:53;54.20;;;27.58;;
35126;SDS011;21300;52.006;5.798;2023-02-15T11:36:24;61.22;;;31.15;;
35126;SDS011;21300;52.006;5.798;2023-02-15T11:38:56;56.75;;;28.80;;
35126;SDS011;21300;52.006;5.798;2023-02-15T11:41:27;63.88;;;30.52;;
35126;SDS011;21300;52.006;5.798;2023-02-15T11:43:58;59.50;;;29.35;;
35126;SDS011;21300;52.006;5.798;2023-02-15T11:46:25;68.32;;;32.13;;
35126;SDS011;21300;52.006;5.798;2023-02-15T11:48:51;61.08;;;32.03;;
35126;SDS011;21300;52.006;5.798;2023-02-15T11:51:17;68.88;;;33.70;;
35126;SDS011;21300;52.006;5.798;2023-02-15T11:53:45;60.55;;;32.53;;
35126;SDS011;21300;52.006;5.798;2023-02-15T11:56:13;61.38;;;32.28;;
35126;SDS011;21300;52.006;5.798;2023-02-15T11:59:00;71.43;;;36.20;;
35126;SDS011;21300;52.006;5.798;2023-02-15T12:09:48;61.47;;;30.60;;
35126;SDS011;21300;52.006;5.798;2023-02-15T12:12:36;62.20;;;30.27;;
35126;SDS011;21300;52.006;5.798;2023-02-15T12:15:10;70.65;;;33.83;;
35126;SDS011;21300;52.006;5.798;2023-02-15T12:17:40;65.20;;;32.90;;
35126;SDS011;21300;52.006;5.798;2023-02-15T12:22:39;61.67;;;29.70;;
35126;SDS011;21300;52.006;5.798;2023-02-15T12:25:31;60.22;;;32.85;;
35126;SDS011;21300;52.006;5.798;2023-02-15T12:31:01;65.80;;;34.83;;
35126;SDS011;21300;52.006;5.798;2023-02-15T12:33:35;57.05;;;31.35;;
35126;SDS011;21300;52.006;5.798;2023-02-15T12:38:33;65.80;;;32.90;;
35126;SDS011;21300;52.006;5.798;2023-02-15T12:41:03;61.63;;;33.75;;
35126;SDS011;21300;52.006;5.798;2023-02-15T12:46:20;58.67;;;31.85;;
35126;SDS011;21300;52.006;5.798;2023-02-15T12:48:46;65.50;;;32.72;;
35126;SDS011;21300;52.006;5.798;2023-02-15T12:51:30;67.28;;;35.95;;
35126;SDS011;21300;52.006;5.798;2023-02-15T12:53:57;58.35;;;33.33;;
35126;SDS011;21300;52.006;5.798;2023-02-15T12:56:26;67.75;;;35.40;;
35126;SDS011;21300;52.006;5.798;2023-02-15T12:58:55;64.43;;;33.80;;
35126;SDS011;21300;52.006;5.798;2023-02-15T13:01:31;61.58;;;33.33;;
35126;SDS011;21300;52.006;5.798;2023-02-15T13:06:28;64.85;;;34.83;;
35126;SDS011;21300;52.006;5.798;2023-02-15T13:09:11;65.40;;;34.53;;
35126;SDS011;21300;52.006;5.798;2023-02-15T13:11:42;61.08;;;32.78;;
35126;SDS011;21300;52.006;5.798;2023-02-15T13:14:18;64.07;;;34.30;;
35126;SDS011;21300;52.006;5.798;2023-02-15T13:16:47;61.60;;;33.45;;
35126;SDS011;21300;52.006;5.798;2023-02-15T13:19:19;61.00;;;32.58;;
35126;SDS011;21300;52.006;5.798;2023-02-15T13:22:13;62.47;;;33.13;;
35126;SDS011;21300;52.006;5.798;2023-02-15T13:24:57;66.53;;;32.90;;
35126;SDS011;21300;52.006;5.798;2023-02-15T13:27:33;58.95;;;31.50;;
35126;SDS011;21300;52.006;5.798;2023-02-15T13:30:03;56.22;;;30.92;;
35126;SDS011;21300;52.006;5.798;2023-02-15T13:32:43;67.13;;;32.85;;
35126;SDS011;21300;52.006;5.798;2023-02-15T13:35:13;60.63;;;33.05;;
35126;SDS011;21300;52.006;5.798;2023-02-15T13:43:22;63.92;;;33.85;;
35126;SDS011;21300;52.006;5.798;2023-02-15T13:57:01;62.15;;;32.40;;
35126;SDS011;21300;52.006;5.798;2023-02-15T14:11:26;58.53;;;32.45;;
35126;SDS011;21300;52.006;5.798;2023-02-15T14:14:13;60.72;;;31.40;;
35126;SDS011;21300;52.006;5.798;2023-02-15T14:16:59;57.72;;;32.05;;
35126;SDS011;21300;52.006;5.798;2023-02-15T14:19:40;58.85;;;32.95;;
35126;SDS011;21300;52.006;5.798;2023-02-15T14:22:40;64.03;;;32.60;;
35126;SDS011;21300;52.006;5.798;2023-02-15T14:25:21;61.95;;;34.33;;
35126;SDS011;21300;52.006;5.798;2023-02-15T14:30:41;62.50;;;32.10;;
35126;SDS011;21300;52.006;5.798;2023-02-15T14:35:39;65.43;;;32.60;;
35126;SDS011;21300;52.006;5.798;2023-02-15T14:38:12;61.38;;;31.38;;
35126;SDS011;21300;52.006;5.798;2023-02-15T14:49:13;63.88;;;33.38;;
35126;SDS011;21300;52.006;5.798;2023-02-15T14:56:46;58.90;;;33.75;;
35126;SDS011;21300;52.006;5.798;2023-02-15T14:59:46;60.38;;;31.52;;
35126;SDS011;21300;52.006;5.798;2023-02-15T15:05:35;60.40;;;32.10;;
35126;SDS011;21300;52.006;5.798;2023-02-15T15:08:27;61.97;;;32.97;;
35126;SDS011;21300;52.006;5.798;2023-02-15T15:10:58;60.15;;;32.08;;
35126;SDS011;21300;52.006;5.798;2023-02-15T15:13:53;55.40;;;32.15;;
35126;SDS011;21300;52.006;5.798;2023-02-15T15:19:02;60.50;;;32.40;;
35126;SDS011;21300;52.006;5.798;2023-02-15T15:41:08;60.40;;;32.58;;
35126;SDS011;21300;52.006;5.798;2023-02-15T15:43:56;54.05;;;31.00;;
35126;SDS011;21300;52.006;5.798;2023-02-15T15:46:38;64.43;;;32.65;;
35126;SDS011;21300;52.006;5.798;2023-02-15T15:49:19;58.60;;;31.38;;
35126;SDS011;21300;52.006;5.798;2023-02-15T15:51:46;61.70;;;32.97;;
35126;SDS011;21300;52.006;5.798;2023-02-15T15:54:20;56.88;;;32.53;;
35126;SDS011;21300;52.006;5.798;2023-02-15T15:56:49;58.85;;;32.33;;
35126;SDS011;21300;52.006;5.798;2023-02-15T15:59:22;61.90;;;32.85;;
35126;SDS011;21300;52.006;5.798;2023-02-15T16:01:53;62.65;;;33.45;;
35126;SDS011;21300;52.006;5.798;2023-02-15T16:04:23;60.20;;;31.85;;
35126;SDS011;21300;52.006;5.798;2023-02-15T16:06:57;62.40;;;33.22;;
35126;SDS011;21300;52.006;5.798;2023-02-15T16:09:38;63.47;;;33.03;;
35126;SDS011;21300;52.006;5.798;2023-02-15T16:12:03;59.00;;;32.45;;
35126;SDS011;21300;52.006;5.798;2023-02-15T16:14:38;61.53;;;32.28;;
35126;SDS011;21300;52.006;5.798;2023-02-15T16:17:06;59.00;;;32.03;;
35126;SDS011;21300;52.006;5.798;2023-02-15T16:19:39;66.05;;;33.05;;
35126;SDS011;21300;52.006;5.798;2023-02-15T16:22:10;59.55;;;31.98;;
35126;SDS011;21300;52.006;5.798;2023-02-15T16:27:26;55.33;;;30.88;;
35126;SDS011;21300;52.006;5.798;2023-02-15T16:29:55;58.70;;;31.77;;
35126;SDS011;21300;52.006;5.798;2023-02-15T16:32:24;55.30;;;31.60;;
35126;SDS011;21300;52.006;5.798;2023-02-15T16:35:13;55.83;;;30.67;;
35126;SDS011;21300;52.006;5.798;2023-02-15T16:40:33;54.97;;;31.23;;
35126;SDS011;21300;52.006;5.798;2023-02-15T16:43:06;57.75;;;31.33;;
35126;SDS011;21300;52.006;5.798;2023-02-15T16:45:38;56.03;;;30.92;;
35126;SDS011;21300;52.006;5.798;2023-02-15T16:48:06;58.92;;;30.83;;
35126;SDS011;21300;52.006;5.798;2023-02-15T16:50:36;60.72;;;31.25;;
35126;SDS011;21300;52.006;5.798;2023-02-15T16:53:04;57.17;;;30.55;;
35126;SDS011;21300;52.006;5.798;2023-02-15T16:55:53;55.75;;;28.45;;
35126;SDS011;21300;52.006;5.798;2023-02-15T16:58:35;57.25;;;30.00;;
35126;SDS011;21300;52.006;5.798;2023-02-15T17:01:09;62.03;;;30.10;;
35126;SDS011;21300;52.006;5.798;2023-02-15T17:03:38;57.28;;;28.88;;
35126;SDS011;21300;52.006;5.798;2023-02-15T17:06:05;57.55;;;30.55;;
35126;SDS011;21300;52.006;5.798;2023-02-15T17:08:48;57.92;;;30.27;;
35126;SDS011;21300;52.006;5.798;2023-02-15T17:11:15;56.63;;;29.02;;
35126;SDS011;21300;52.006;5.798;2023-02-15T17:16:29;64.50;;;30.92;;
35126;SDS011;21300;52.006;5.798;2023-02-15T17:19:14;64.35;;;30.88;;
35126;SDS011;21300;52.006;5.798;2023-02-15T17:21:47;54.10;;;29.85;;
35126;SDS011;21300;52.006;5.798;2023-02-15T17:24:17;52.60;;;29.05;;
35126;SDS011;21300;52.006;5.798;2023-02-15T17:26:56;63.20;;;32.22;;
35126;SDS011;21300;52.006;5.798;2023-02-15T17:29:38;55.17;;;31.20;;
35126;SDS011;21300;52.006;5.798;2023-02-15T17:32:12;60.83;;;29.90;;
35126;SDS011;21300;52.006;5.798;2023-02-15T17:34:45;61.15;;;30.40;;
35126;SDS011;21300;52.006;5.798;2023-02-15T17:37:12;61.88;;;30.63;;
35126;SDS011;21300;52.006;5.798;2023-02-15T17:39:48;53.97;;;29.52;;
35126;SDS011;21300;52.006;5.798;2023-02-15T17:42:14;63.40;;;32.08;;
35126;SDS011;21300;52.006;5.798;2023-02-15T17:44:39;57.78;;;31.02;;
35126;SDS011;21300;52.006;5.798;2023-02-15T17:47:05;55.42;;;29.48;;
35126;SDS011;21300;52.006;5.798;2023-02-15T17:49:31;59.42;;;30.80;;
35126;SDS011;21300;52.006;5.798;2023-02-15T17:52:00;56.00;;;28.83;;
35126;SDS011;21300;52.006;5.798;2023-02-15T17:54:26;59.50;;;31.95;;
35126;SDS011;21300;52.006;5.798;2023-02-15T17:57:12;60.03;;;30.75;;
35126;SDS011;21300;52.006;5.798;2023-02-15T17:59:39;56.55;;;30.65;;
35126;SDS011;21300;52.006;5.798;2023-02-15T18:02:24;59.15;;;30.77;;